createdAt,value
2018-03-30T00:00:16.564Z,2.80
2018-03-30T00:02:44.204Z,2.67
2018-03-30T00:05:11.854Z,2.69
2018-03-30T00:07:39.461Z,2.65
2018-03-30T00:10:07.153Z,2.81
2018-03-30T00:12:34.816Z,2.82
2018-03-30T00:15:02.448Z,2.76
2018-03-30T00:17:30.051Z,2.88
2018-03-30T00:19:57.714Z,3.13
2018-03-30T00:22:25.316Z,3.07
2018-03-30T00:24:52.974Z,3.05
2018-03-30T00:27:20.766Z,2.98
2018-03-30T00:29:48.531Z,2.93
2018-03-30T00:32:16.152Z,2.97
2018-03-30T00:34:43.752Z,3.07
2018-03-30T00:37:11.383Z,3.08
2018-03-30T00:39:39.042Z,3.20
2018-03-30T00:42:07.044Z,3.03
2018-03-30T00:44:34.650Z,3.06
2018-03-30T00:47:02.243Z,3.06
2018-03-30T00:49:29.879Z,3.20
2018-03-30T00:51:57.488Z,3.19
2018-03-30T00:54:25.150Z,3.01
2018-03-30T00:56:52.751Z,2.91
2018-03-30T00:59:20.451Z,3.00
2018-03-30T01:01:48.092Z,2.95
2018-03-30T01:04:15.706Z,2.90
2018-03-30T01:06:43.373Z,2.90
2018-03-30T01:09:11.045Z,2.72
2018-03-30T01:11:38.658Z,2.75
2018-03-30T01:14:06.321Z,2.74
2018-03-30T01:16:33.927Z,2.77
2018-03-30T01:19:01.532Z,2.72
2018-03-30T01:21:29.913Z,2.78
2018-03-30T01:23:57.525Z,2.71
2018-03-30T01:26:25.182Z,2.80
2018-03-30T01:28:52.855Z,2.69
2018-03-30T01:31:20.471Z,2.71
2018-03-30T01:33:48.129Z,2.79
2018-03-30T01:36:15.744Z,2.71
2018-03-30T01:38:43.383Z,2.77
2018-03-30T01:41:11.039Z,2.56
2018-03-30T01:43:38.638Z,2.72
2018-03-30T01:46:06.252Z,2.58
2018-03-30T01:48:33.986Z,2.68
2018-03-30T01:51:01.604Z,2.76
2018-03-30T01:53:29.253Z,2.80
2018-03-30T01:55:57.079Z,2.64
2018-03-30T01:58:24.848Z,2.73
2018-03-30T02:00:52.635Z,2.79
2018-03-30T02:03:20.412Z,2.94
2018-03-30T02:05:48.152Z,2.77
2018-03-30T02:08:15.817Z,2.90
2018-03-30T02:10:43.502Z,2.95
2018-03-30T02:13:11.103Z,2.68
2018-03-30T02:15:38.697Z,2.68
2018-03-30T02:18:06.343Z,2.94
2018-03-30T02:20:33.994Z,2.95
2018-03-30T02:23:01.586Z,2.75
2018-03-30T02:25:29.185Z,3.02
2018-03-30T02:27:56.840Z,2.98
2018-03-30T02:30:25.006Z,3.02
2018-03-30T02:32:52.738Z,2.81
2018-03-30T02:35:20.414Z,2.86
2018-03-30T02:37:48.144Z,3.06
2018-03-30T02:40:15.957Z,3.18
2018-03-30T02:42:43.636Z,2.99
2018-03-30T02:45:16.478Z,3.32
2018-03-30T02:47:44.089Z,3.17
2018-03-30T02:50:11.697Z,3.26
2018-03-30T02:52:39.373Z,3.03
2018-03-30T02:55:06.970Z,2.99
2018-03-30T02:57:34.818Z,3.16
2018-03-30T03:00:02.444Z,3.23
2018-03-30T03:02:30.066Z,3.20
2018-03-30T03:04:57.699Z,2.96
2018-03-30T03:07:25.348Z,3.23
2018-03-30T03:09:53.044Z,3.41
2018-03-30T03:12:20.639Z,3.10
2018-03-30T03:14:48.242Z,3.31
2018-03-30T03:17:15.890Z,3.36
2018-03-30T03:19:43.478Z,3.19
2018-03-30T03:22:11.152Z,3.23
2018-03-30T03:24:38.757Z,3.00
2018-03-30T03:27:06.374Z,3.08
2018-03-30T03:29:34.015Z,3.17
2018-03-30T03:32:01.631Z,3.13
2018-03-30T03:34:29.286Z,3.30
2018-03-30T03:36:56.898Z,3.16
2018-03-30T03:39:24.490Z,3.38
2018-03-30T03:41:52.166Z,3.27
2018-03-30T03:44:19.788Z,3.26
2018-03-30T03:46:47.422Z,3.11
2018-03-30T03:49:15.100Z,3.17
2018-03-30T03:51:42.840Z,3.19
2018-03-30T03:54:10.664Z,3.17
2018-03-30T03:56:38.280Z,3.12
2018-03-30T03:59:05.915Z,3.08
2018-03-30T04:01:33.575Z,2.97
2018-03-30T04:04:01.174Z,3.02
2018-03-30T04:06:28.771Z,2.80
2018-03-30T04:08:56.412Z,2.93
2018-03-30T04:11:24.031Z,2.98
2018-03-30T04:13:51.703Z,3.04
2018-03-30T04:16:19.366Z,3.03
2018-03-30T04:18:46.971Z,3.02
2018-03-30T04:21:14.612Z,2.93
2018-03-30T04:23:42.225Z,2.82
2018-03-30T04:26:09.919Z,2.91
2018-03-30T04:28:37.555Z,3.08
2018-03-30T04:31:05.387Z,3.15
2018-03-30T04:33:33.024Z,3.08
2018-03-30T04:36:00.632Z,3.32
2018-03-30T04:38:28.313Z,3.17
2018-03-30T04:40:56.298Z,3.21
2018-03-30T04:43:23.907Z,2.97
2018-03-30T04:45:51.521Z,3.10
2018-03-30T04:48:19.145Z,2.89
2018-03-30T04:50:46.748Z,2.85
2018-03-30T04:53:14.744Z,3.13
2018-03-30T04:55:42.517Z,3.19
2018-03-30T04:58:10.333Z,3.05
2018-03-30T05:00:38.102Z,3.31
2018-03-30T05:03:05.766Z,3.10
2018-03-30T05:05:33.508Z,3.10
2018-03-30T05:08:01.336Z,2.94
2018-03-30T05:10:29.002Z,2.99
2018-03-30T05:12:56.685Z,2.99
2018-03-30T05:15:24.471Z,2.98
2018-03-30T05:17:52.242Z,3.21
2018-03-30T05:20:19.918Z,3.10
2018-03-30T05:22:47.584Z,3.14
2018-03-30T05:25:15.436Z,3.23
2018-03-30T05:27:43.247Z,3.19
2018-03-30T05:30:10.924Z,3.17
2018-03-30T05:32:38.558Z,3.21
2018-03-30T05:35:06.154Z,3.39
2018-03-30T05:37:34.151Z,3.42
2018-03-30T05:40:01.832Z,3.47
2018-03-30T05:42:29.548Z,3.25
2018-03-30T05:44:57.170Z,3.34
2018-03-30T05:47:24.906Z,3.21
2018-03-30T05:49:52.625Z,3.21
2018-03-30T05:52:20.415Z,3.37
2018-03-30T05:54:48.107Z,3.27
2018-03-30T05:57:15.761Z,3.38
2018-03-30T05:59:43.545Z,3.43
2018-03-30T06:02:11.217Z,3.21
2018-03-30T06:04:38.951Z,3.15
2018-03-30T06:07:06.780Z,3.14
2018-03-30T06:09:34.448Z,3.05
2018-03-30T06:12:02.127Z,3.13
2018-03-30T06:14:30.010Z,3.11
2018-03-30T06:16:57.776Z,3.31
2018-03-30T06:19:25.973Z,3.36
2018-03-30T06:21:53.752Z,3.17
2018-03-30T06:24:21.405Z,3.14
2018-03-30T06:26:49.149Z,3.24
2018-03-30T06:29:16.882Z,3.11
2018-03-30T06:31:44.655Z,3.17
2018-03-30T06:34:12.433Z,3.20
2018-03-30T06:36:40.213Z,3.08
2018-03-30T06:39:08.083Z,3.19
2018-03-30T06:41:35.872Z,3.38
2018-03-30T06:44:03.615Z,3.58
2018-03-30T06:46:31.428Z,3.65
2018-03-30T06:48:59.201Z,3.63
2018-03-30T06:51:26.871Z,3.62
2018-03-30T06:53:54.570Z,3.71
2018-03-30T06:56:22.332Z,3.51
2018-03-30T06:58:50.011Z,3.81
2018-03-30T07:01:17.788Z,3.68
2018-03-30T07:03:45.456Z,3.77
2018-03-30T07:06:13.230Z,3.64
2018-03-30T07:08:40.905Z,4.02
2018-03-30T07:11:08.695Z,4.06
2018-03-30T07:13:36.472Z,4.02
2018-03-30T07:16:04.261Z,4.06
2018-03-30T07:18:31.996Z,4.20
2018-03-30T07:20:59.662Z,4.07
2018-03-30T07:23:27.482Z,4.21
2018-03-30T07:25:55.163Z,3.98
2018-03-30T07:28:22.782Z,4.01
2018-03-30T07:30:50.613Z,4.02
2018-03-30T07:33:18.494Z,4.05
2018-03-30T07:35:46.082Z,3.95
2018-03-30T07:38:13.843Z,3.93
2018-03-30T07:40:41.695Z,4.06
2018-03-30T07:43:09.398Z,3.92
2018-03-30T07:45:37.072Z,3.97
2018-03-30T07:48:04.920Z,3.96
2018-03-30T07:50:32.629Z,4.03
2018-03-30T07:53:00.408Z,4.03
2018-03-30T07:55:28.140Z,4.09
2018-03-30T07:57:55.964Z,4.39
2018-03-30T08:00:23.634Z,4.43
2018-03-30T08:02:51.462Z,4.47
2018-03-30T08:05:19.087Z,4.42
2018-03-30T08:07:46.770Z,4.60
2018-03-30T08:10:14.649Z,4.77
2018-03-30T08:12:42.426Z,4.50
2018-03-30T08:15:10.203Z,4.98
2018-03-30T08:17:38.086Z,5.06
2018-03-30T08:20:05.757Z,5.08
2018-03-30T08:22:33.568Z,4.98
2018-03-30T08:25:01.317Z,4.95
2018-03-30T08:27:28.924Z,4.94
2018-03-30T08:29:57.079Z,5.27
2018-03-30T08:32:24.857Z,5.48
2018-03-30T08:34:52.785Z,5.83
2018-03-30T08:37:20.617Z,5.90
2018-03-30T08:39:48.278Z,5.63
2018-03-30T08:42:16.270Z,5.72
2018-03-30T08:44:44.003Z,6.04
2018-03-30T08:47:11.830Z,6.38
2018-03-30T08:49:39.578Z,6.28
2018-03-30T08:52:07.176Z,6.57
2018-03-30T08:54:34.957Z,6.47
2018-03-30T08:57:02.739Z,6.12
2018-03-30T08:59:30.402Z,6.16
2018-03-30T09:01:58.090Z,6.27
2018-03-30T09:04:26.046Z,6.37
2018-03-30T09:06:53.850Z,6.73
2018-03-30T09:09:21.515Z,6.46
2018-03-30T09:11:49.191Z,6.58
2018-03-30T09:14:16.850Z,6.61
2018-03-30T09:16:44.547Z,6.66
2018-03-30T09:19:12.144Z,6.67
2018-03-30T09:21:39.867Z,7.06
2018-03-30T09:24:07.892Z,6.58
2018-03-30T09:26:35.546Z,6.70
2018-03-30T09:29:03.295Z,6.84
2018-03-30T09:31:31.012Z,6.83
2018-03-30T09:33:58.792Z,6.84
2018-03-30T09:36:26.445Z,7.10
2018-03-30T09:38:54.250Z,7.39
2018-03-30T09:41:22.021Z,7.41
2018-03-30T09:43:49.691Z,7.92
2018-03-30T09:46:17.476Z,8.13
2018-03-30T09:48:45.552Z,8.04
2018-03-30T09:51:13.291Z,8.14
2018-03-30T09:53:40.886Z,8.09
2018-03-30T09:56:08.535Z,8.17
2018-03-30T09:58:36.216Z,8.05
2018-03-30T10:01:18.803Z,8.28
2018-03-30T10:03:49.243Z,8.38
2018-03-30T10:06:17.008Z,8.39
2018-03-30T10:08:44.675Z,8.57
2018-03-30T10:11:13.484Z,8.63
2018-03-30T10:13:41.265Z,8.66
2018-03-30T10:16:08.938Z,8.78
2018-03-30T10:18:36.818Z,9.19
2018-03-30T10:21:04.598Z,8.79
2018-03-30T10:23:32.273Z,9.22
2018-03-30T10:25:59.946Z,8.97
2018-03-30T10:28:27.687Z,8.95
2018-03-30T10:30:55.310Z,9.28
2018-03-30T10:33:22.965Z,9.36
2018-03-30T10:35:50.655Z,9.15
2018-03-30T10:38:18.310Z,9.21
2018-03-30T10:40:46.101Z,9.32
2018-03-30T10:43:13.779Z,9.39
2018-03-30T10:45:41.442Z,9.82
2018-03-30T10:48:09.119Z,9.56
2018-03-30T10:50:36.795Z,9.56
2018-03-30T10:53:04.583Z,10.13
2018-03-30T10:55:32.566Z,10.34
2018-03-30T10:58:00.243Z,10.54
2018-03-30T11:00:28.021Z,10.23
2018-03-30T11:02:55.704Z,10.34
2018-03-30T11:05:23.612Z,10.16
2018-03-30T11:07:51.404Z,10.17
2018-03-30T11:10:19.030Z,10.39
2018-03-30T11:12:46.697Z,10.52
2018-03-30T11:15:14.646Z,10.74
2018-03-30T11:17:42.265Z,10.83
2018-03-30T11:20:09.932Z,10.87
2018-03-30T11:22:37.681Z,10.96
2018-03-30T11:25:05.315Z,10.60
2018-03-30T11:27:33.062Z,10.85
2018-03-30T11:30:00.742Z,10.47
2018-03-30T11:32:28.414Z,10.21
2018-03-30T11:34:57.086Z,10.31
2018-03-30T11:37:24.904Z,10.54
2018-03-30T11:39:52.673Z,10.68
2018-03-30T11:42:20.452Z,10.65
2018-03-30T11:44:49.155Z,10.62
2018-03-30T11:47:17.030Z,11.19
2018-03-30T11:49:44.700Z,11.00
2018-03-30T11:52:12.481Z,11.32
2018-03-30T11:54:40.216Z,11.38
2018-03-30T11:57:08.039Z,11.23
2018-03-30T11:59:35.715Z,11.30
2018-03-30T12:02:03.493Z,11.60
2018-03-30T12:04:31.159Z,11.55
2018-03-30T12:06:58.843Z,11.56
2018-03-30T12:09:26.523Z,11.55
2018-03-30T12:11:54.299Z,11.80
2018-03-30T12:14:22.179Z,11.62
2018-03-30T12:16:50.169Z,11.27
2018-03-30T12:19:17.913Z,11.31
2018-03-30T12:21:45.633Z,11.08
2018-03-30T12:24:13.394Z,11.18
2018-03-30T12:26:41.007Z,11.22
2018-03-30T12:29:08.846Z,11.12
2018-03-30T12:31:36.462Z,11.45
2018-03-30T12:34:04.289Z,11.55
2018-03-30T12:36:32.078Z,11.46
2018-03-30T12:38:59.819Z,11.86
2018-03-30T12:41:27.634Z,11.80
2018-03-30T12:43:55.299Z,11.97
2018-03-30T12:46:22.975Z,12.05
2018-03-30T12:48:50.765Z,12.69
2018-03-30T12:51:18.505Z,12.61
2018-03-30T12:53:46.317Z,12.39
2018-03-30T12:56:14.097Z,12.45
2018-03-30T12:58:41.872Z,12.55
2018-03-30T13:01:09.642Z,12.03
2018-03-30T13:03:37.314Z,12.15
2018-03-30T13:06:05.152Z,11.95
2018-03-30T13:08:32.888Z,11.76
2018-03-30T13:11:00.556Z,11.91
2018-03-30T13:13:28.234Z,12.48
2018-03-30T13:15:56.021Z,12.96
2018-03-30T13:18:23.792Z,13.33
2018-03-30T13:20:51.470Z,13.27
2018-03-30T13:23:19.247Z,13.37
2018-03-30T13:25:47.024Z,13.27
2018-03-30T13:28:14.753Z,13.99
2018-03-30T13:30:42.363Z,13.53
2018-03-30T13:33:10.044Z,13.10
2018-03-30T13:35:37.929Z,12.74
2018-03-30T13:38:05.673Z,13.25
2018-03-30T13:40:33.384Z,13.46
2018-03-30T13:43:01.061Z,13.48
2018-03-30T13:45:28.836Z,13.22
2018-03-30T13:47:56.614Z,13.12
2018-03-30T13:50:26.136Z,13.53
2018-03-30T13:52:54.864Z,12.96
2018-03-30T13:55:23.017Z,13.02
2018-03-30T13:57:51.643Z,12.90
2018-03-30T14:00:25.030Z,12.84
2018-03-30T14:02:54.553Z,12.96
2018-03-30T14:05:25.491Z,13.40
2018-03-30T14:08:08.948Z,13.44
2018-03-30T14:10:36.830Z,12.88
2018-03-30T14:13:06.851Z,12.91
2018-03-30T14:15:34.594Z,12.73
2018-03-30T14:18:15.282Z,12.76
2018-03-30T14:20:46.884Z,12.89
2018-03-30T14:23:17.291Z,13.38
2018-03-30T14:25:45.823Z,13.65
2018-03-30T14:28:16.353Z,13.41
2018-03-30T14:30:47.892Z,13.44
2018-03-30T14:33:18.167Z,13.46
2018-03-30T14:38:52.289Z,13.56
2018-03-30T14:41:20.521Z,13.17
2018-03-30T14:43:49.018Z,13.27
2018-03-30T14:46:22.623Z,12.94
2018-03-30T14:48:54.090Z,13.00
2018-03-30T14:51:25.459Z,12.96
2018-03-30T14:57:01.681Z,13.00
2018-03-30T15:02:27.026Z,13.16
2018-03-30T15:07:59.246Z,13.35
2018-03-30T15:13:25.611Z,13.24
2018-03-30T15:18:56.304Z,13.32
2018-03-30T15:21:38.922Z,13.18
2018-03-30T15:24:11.211Z,13.05
2018-03-30T15:26:39.809Z,13.29
2018-03-30T15:29:10.359Z,13.16
2018-03-30T15:31:43.966Z,13.08
2018-03-30T15:34:15.594Z,13.24
2018-03-30T15:39:42.223Z,12.95
2018-03-30T15:42:09.999Z,13.04
2018-03-30T15:44:52.576Z,12.74
2018-03-30T15:47:20.251Z,12.66
2018-03-30T15:49:47.969Z,12.87
2018-03-30T15:52:16.538Z,12.60
2018-03-30T15:54:44.306Z,12.87
2018-03-30T15:57:12.432Z,12.76
2018-03-30T15:59:40.201Z,12.99
2018-03-30T16:02:07.998Z,12.54
2018-03-30T16:04:35.770Z,12.88
2018-03-30T16:07:05.530Z,12.55
2018-03-30T16:09:33.274Z,12.67
2018-03-30T16:12:03.819Z,12.30
2018-03-30T16:14:31.450Z,12.42
2018-03-30T16:16:59.273Z,12.38
2018-03-30T16:19:26.537Z,12.48
2018-03-30T16:21:53.697Z,12.46
2018-03-30T16:24:20.968Z,12.61
2018-03-30T16:26:48.236Z,12.28
2018-03-30T16:29:15.344Z,12.03
2018-03-30T16:31:42.556Z,12.09
2018-03-30T16:34:09.603Z,12.34
2018-03-30T16:36:36.775Z,12.10
2018-03-30T16:39:03.952Z,11.87
2018-03-30T16:41:31.098Z,11.85
2018-03-30T16:43:58.228Z,11.97
2018-03-30T16:46:25.437Z,12.05
2018-03-30T16:48:53.319Z,11.96
2018-03-30T16:51:20.465Z,11.88
2018-03-30T16:53:47.639Z,11.80
2018-03-30T16:56:14.909Z,11.76
2018-03-30T16:58:42.226Z,11.92
2018-03-30T17:01:09.852Z,11.86
2018-03-30T17:03:37.119Z,11.51
2018-03-30T17:06:04.287Z,11.50
2018-03-30T17:08:31.551Z,11.65
2018-03-30T17:10:59.726Z,11.24
2018-03-30T17:13:26.912Z,11.39
2018-03-30T17:15:54.165Z,11.31
2018-03-30T17:18:21.383Z,11.12
2018-03-30T17:20:48.489Z,11.32
2018-03-30T17:23:15.644Z,10.94
2018-03-30T17:25:42.819Z,11.15
2018-03-30T17:28:09.975Z,11.02
2018-03-30T17:30:37.194Z,11.18
2018-03-30T17:33:04.511Z,10.96
2018-03-30T17:35:31.784Z,10.95
2018-03-30T17:37:59.046Z,10.93
2018-03-30T17:40:26.313Z,10.81
2018-03-30T17:42:53.511Z,10.89
2018-03-30T17:45:20.637Z,10.46
2018-03-30T17:47:47.899Z,10.65
2018-03-30T17:50:15.128Z,10.54
2018-03-30T17:52:42.218Z,10.65
2018-03-30T17:55:09.495Z,10.55
2018-03-30T17:57:36.964Z,10.49
2018-03-30T18:00:04.129Z,10.53
2018-03-30T18:02:31.219Z,10.42
2018-03-30T18:04:58.350Z,10.33
2018-03-30T18:07:25.524Z,10.22
2018-03-30T18:09:52.786Z,10.41
2018-03-30T18:12:20.001Z,10.34
2018-03-30T18:14:47.107Z,10.33
2018-03-30T18:17:14.268Z,10.35
2018-03-30T18:19:41.441Z,10.35
2018-03-30T18:22:08.507Z,10.30
2018-03-30T18:24:35.668Z,10.09
2018-03-30T18:27:03.032Z,10.14
2018-03-30T18:29:30.189Z,10.23
2018-03-30T18:31:57.459Z,10.09
2018-03-30T18:34:24.677Z,10.20
2018-03-30T18:36:51.900Z,10.08
2018-03-30T18:39:19.051Z,10.21
2018-03-30T18:41:46.320Z,10.17
2018-03-30T18:44:13.402Z,10.08
2018-03-30T18:46:40.515Z,10.04
2018-03-30T18:49:07.693Z,9.89
2018-03-30T18:51:35.308Z,10.11
2018-03-30T18:54:02.656Z,9.79
2018-03-30T18:56:29.810Z,9.79
2018-03-30T18:58:56.964Z,9.82
2018-03-30T19:01:24.140Z,10.01
2018-03-30T19:03:51.403Z,9.91
2018-03-30T19:06:18.676Z,9.87
2018-03-30T19:08:45.841Z,9.87
2018-03-30T19:11:13.173Z,9.71
2018-03-30T19:13:40.261Z,9.72
2018-03-30T19:16:07.528Z,9.92
2018-03-30T19:18:34.792Z,9.75
2018-03-30T19:21:02.019Z,9.83
2018-03-30T19:23:29.224Z,9.92
2018-03-30T19:25:56.490Z,9.95
2018-03-30T19:28:23.570Z,9.80
2018-03-30T19:30:50.816Z,9.81
2018-03-30T19:33:17.977Z,9.89
2018-03-30T19:35:45.142Z,9.75
2018-03-30T19:38:12.410Z,9.71
2018-03-30T19:40:39.628Z,9.79
2018-03-30T19:43:06.785Z,9.68
2018-03-30T19:45:34.206Z,9.74
2018-03-30T19:48:01.372Z,9.63
2018-03-30T19:50:29.044Z,9.77
2018-03-30T19:52:56.312Z,9.60
2018-03-30T19:55:23.478Z,9.55
2018-03-30T19:57:50.692Z,9.45
2018-03-30T20:00:17.796Z,9.53
2018-03-30T20:02:45.071Z,9.71
2018-03-30T20:05:12.341Z,9.66
2018-03-30T20:07:39.501Z,9.52
2018-03-30T20:10:06.767Z,9.44
2018-03-30T20:12:34.031Z,9.52
2018-03-30T20:15:01.186Z,9.42
2018-03-30T20:17:28.461Z,9.46
2018-03-30T20:19:55.551Z,9.38
2018-03-30T20:22:23.123Z,9.43
2018-03-30T20:24:50.171Z,9.51
2018-03-30T20:27:17.392Z,9.27
2018-03-30T20:29:44.580Z,9.47
2018-03-30T20:32:11.851Z,9.37
2018-03-30T20:34:38.902Z,9.26
2018-03-30T20:37:05.978Z,9.35
2018-03-30T20:39:33.201Z,9.23
2018-03-30T20:42:00.506Z,9.26
2018-03-30T20:44:27.559Z,9.37
2018-03-30T20:46:54.734Z,9.24
2018-03-30T20:49:21.888Z,9.31
2018-03-30T20:51:48.955Z,9.21
2018-03-30T20:54:16.533Z,9.32
2018-03-30T20:56:43.739Z,9.35
2018-03-30T20:59:10.790Z,9.44
2018-03-30T21:01:38.122Z,9.34
2018-03-30T21:04:05.385Z,9.39
2018-03-30T21:06:32.652Z,9.34
2018-03-30T21:08:59.814Z,9.03
2018-03-30T21:11:27.042Z,9.17
2018-03-30T21:13:54.245Z,9.01
2018-03-30T21:16:21.404Z,8.97
2018-03-30T21:18:48.674Z,8.87
2018-03-30T21:21:15.945Z,8.82
2018-03-30T21:23:43.207Z,8.79
2018-03-30T21:26:10.263Z,8.76
2018-03-30T21:28:37.326Z,8.75
2018-03-30T21:31:04.489Z,8.65
2018-03-30T21:33:31.659Z,8.43
2018-03-30T21:35:58.811Z,8.33
2018-03-30T21:38:26.085Z,8.28
2018-03-30T21:40:53.232Z,8.12
2018-03-30T21:43:20.409Z,7.89
2018-03-30T21:45:47.572Z,7.83
2018-03-30T21:48:14.737Z,7.82
2018-03-30T21:50:42.007Z,7.71
2018-03-30T21:53:09.275Z,7.64
2018-03-30T21:55:36.423Z,7.70
2018-03-30T21:58:03.586Z,7.56
2018-03-30T22:00:30.975Z,7.57
2018-03-30T22:02:58.232Z,7.49
2018-03-30T22:05:25.432Z,7.42
2018-03-30T22:07:52.554Z,7.46
2018-03-30T22:10:19.814Z,7.36
2018-03-30T22:12:47.361Z,7.37
2018-03-30T22:15:14.562Z,7.38
2018-03-30T22:17:41.829Z,7.31
2018-03-30T22:20:09.264Z,7.36
2018-03-30T22:22:36.563Z,7.35
2018-03-30T22:25:03.626Z,7.36
2018-03-30T22:27:31.086Z,7.36
2018-03-30T22:29:58.253Z,7.33
2018-03-30T22:32:25.528Z,7.28
2018-03-30T22:34:52.838Z,7.24
2018-03-30T22:37:20.059Z,7.15
2018-03-30T22:39:47.142Z,7.17
2018-03-30T22:42:14.298Z,7.20
2018-03-30T22:44:41.439Z,7.10
2018-03-30T22:47:08.611Z,7.12
2018-03-30T22:49:35.874Z,7.15
2018-03-30T22:52:03.032Z,7.28
2018-03-30T22:54:30.202Z,7.07
2018-03-30T22:56:57.370Z,7.23
2018-03-30T22:59:24.531Z,7.11
2018-03-30T23:01:51.714Z,7.04
2018-03-30T23:04:18.849Z,7.04
2018-03-30T23:06:46.018Z,7.05
2018-03-30T23:09:13.184Z,7.09
2018-03-30T23:11:40.353Z,7.05
2018-03-30T23:14:07.512Z,7.01
2018-03-30T23:16:34.674Z,7.06
2018-03-30T23:19:02.247Z,7.13
2018-03-30T23:21:29.302Z,7.02
2018-03-30T23:23:56.574Z,7.04
2018-03-30T23:26:23.840Z,6.99
2018-03-30T23:28:51.107Z,6.96
2018-03-30T23:31:18.258Z,6.96
2018-03-30T23:33:45.328Z,7.04
2018-03-30T23:36:12.493Z,6.99
2018-03-30T23:38:39.762Z,6.96
2018-03-30T23:41:06.924Z,6.96
2018-03-30T23:43:34.189Z,7.03
2018-03-30T23:46:01.343Z,7.03
2018-03-30T23:48:28.617Z,6.93
2018-03-30T23:50:55.770Z,6.87
2018-03-30T23:53:23.051Z,6.83
2018-03-30T23:55:50.320Z,6.89
2018-03-30T23:58:17.583Z,6.80
